Time;durP1;ratioP1;P1;durP2;ratioP2;P2;SDS_P1;SDS_P2;PMS_P1;PMS_P2;Temp;Humidity;BMP_temperature;BMP_pressure;BME280_temperature;BME280_humidity;BME280_pressure;Samples;Min_cycle;Max_cycle;Signal;HPM_P1;HPM_P2
2021/01/30 00:01:13;;;;;;;5.33;1.60;;;10.10;99.90;;;;;;4971978;28;20251;-79
2021/01/30 00:03:40;;;;;;;5.93;1.60;;;10.10;99.90;;;;;;4972360;28;20234;-80
2021/01/30 00:06:07;;;;;;;5.90;1.63;;;10.10;99.90;;;;;;4973210;28;20288;-80
2021/01/30 00:08:34;;;;;;;4.73;1.83;;;10.10;99.90;;;;;;4972403;28;20683;-80
2021/01/30 00:11:00;;;;;;;3.57;1.50;;;10.10;99.90;;;;;;4972653;28;20234;-80
2021/01/30 00:13:26;;;;;;;5.17;1.60;;;10.10;99.90;;;;;;4972507;28;20233;-80
2021/01/30 00:15:53;;;;;;;3.57;1.40;;;10.00;99.90;;;;;;4971837;28;20696;-80
2021/01/30 00:18:19;;;;;;;6.43;1.50;;;10.00;99.90;;;;;;4971900;28;20262;-80
2021/01/30 00:20:46;;;;;;;3.50;1.20;;;10.00;99.90;;;;;;4990726;28;20315;-80
2021/01/30 00:23:13;;;;;;;4.90;1.20;;;10.00;99.90;;;;;;4972532;28;20284;-80
2021/01/30 00:25:39;;;;;;;3.87;1.17;;;10.00;99.90;;;;;;4972122;28;20238;-80
2021/01/30 00:28:07;;;;;;;5.20;1.10;;;10.00;99.90;;;;;;4972138;28;20230;-80
2021/01/30 00:30:34;;;;;;;2.20;1.17;;;10.00;99.90;;;;;;4971688;28;20230;-80
2021/01/30 00:33:02;;;;;;;3.03;1.07;;;10.00;99.90;;;;;;4971773;28;20222;-80
2021/01/30 00:35:31;;;;;;;5.13;1.00;;;10.00;99.90;;;;;;4971824;28;20275;-79
2021/01/30 00:37:57;;;;;;;2.50;1.20;;;10.00;99.90;;;;;;4971854;28;20262;-80
2021/01/30 00:40:25;;;;;;;4.10;1.00;;;10.00;99.90;;;;;;4971623;28;20241;-80
2021/01/30 00:42:51;;;;;;;2.50;1.03;;;10.00;99.90;;;;;;4972064;28;20230;-80
2021/01/30 00:45:21;;;;;;;2.30;1.03;;;10.00;99.90;;;;;;4971783;28;20246;-80
2021/01/30 00:47:47;;;;;;;3.47;1.07;;;10.00;99.90;;;;;;4971876;28;20213;-80
2021/01/30 00:50:18;;;;;;;5.27;1.00;;;10.00;99.90;;;;;;4972151;28;20568;-79
2021/01/30 00:52:45;;;;;;;5.57;1.00;;;10.00;99.90;;;;;;4972106;28;20256;-80
2021/01/30 00:55:15;;;;;;;5.63;1.10;;;10.00;99.90;;;;;;4972081;28;20747;-80
2021/01/30 00:57:46;;;;;;;1.73;0.87;;;10.00;99.90;;;;;;4971331;28;20609;-79
2021/01/30 01:00:16;;;;;;;3.87;0.87;;;10.00;99.90;;;;;;4971972;28;20673;-79
2021/01/30 01:02:42;;;;;;;2.73;0.77;;;10.00;99.90;;;;;;4970421;28;20249;-79
2021/01/30 01:05:13;;;;;;;2.60;0.80;;;10.00;99.90;;;;;;4971846;28;20243;-80
2021/01/30 01:07:39;;;;;;;1.87;0.70;;;10.00;99.90;;;;;;4971366;28;20287;-80
2021/01/30 01:10:06;;;;;;;2.47;0.90;;;10.00;99.90;;;;;;4972227;28;20284;-80
2021/01/30 01:12:32;;;;;;;2.47;0.70;;;10.10;99.90;;;;;;4971207;28;20257;-79
2021/01/30 01:15:00;;;;;;;1.97;0.70;;;10.00;99.90;;;;;;4971927;28;20933;-79
2021/01/30 01:17:26;;;;;;;1.97;0.83;;;10.10;99.90;;;;;;4971815;28;20321;-80
2021/01/30 01:19:53;;;;;;;1.73;0.67;;;10.10;99.90;;;;;;4971436;28;20252;-79
2021/01/30 01:22:19;;;;;;;1.40;0.70;;;10.10;99.90;;;;;;4970834;28;20202;-80
2021/01/30 01:24:45;;;;;;;1.53;0.70;;;10.10;99.90;;;;;;4971025;28;20236;-79
2021/01/30 01:27:12;;;;;;;2.27;0.70;;;10.10;99.90;;;;;;4971131;28;20272;-80
2021/01/30 01:29:38;;;;;;;1.77;0.77;;;10.10;99.90;;;;;;4971009;28;20246;-80
2021/01/30 01:32:06;;;;;;;1.77;0.70;;;10.20;99.90;;;;;;4971398;28;20256;-80
2021/01/30 01:34:32;;;;;;;1.87;0.80;;;10.20;99.90;;;;;;4970553;28;20227;-80
2021/01/30 01:37:02;;;;;;;2.63;0.70;;;10.20;99.90;;;;;;4970851;28;20244;-80
2021/01/30 01:39:30;;;;;;;0.80;0.50;;;10.20;99.90;;;;;;4971087;28;20288;-80
2021/01/30 01:42:00;;;;;;;2.23;0.60;;;10.20;99.90;;;;;;4971119;28;21177;-80
2021/01/30 01:44:27;;;;;;;1.30;0.70;;;10.20;99.90;;;;;;4971500;28;20873;-80
2021/01/30 01:46:55;;;;;;;1.73;0.77;;;10.30;99.90;;;;;;4971327;28;20549;-79
2021/01/30 01:49:28;;;;;;;1.17;0.60;;;10.30;99.90;;;;;;4970710;28;20738;-80
2021/01/30 01:52:02;;;;;;;1.40;0.70;;;10.30;99.90;;;;;;4970980;28;20709;-80
2021/01/30 01:54:29;;;;;;;1.30;0.53;;;10.30;99.90;;;;;;5022798;28;20291;-80
2021/01/30 01:56:59;;;;;;;1.20;0.60;;;10.30;99.90;;;;;;5072161;28;20238;-80
2021/01/30 01:59:26;;;;;;;0.50;0.50;;;10.40;99.90;;;;;;4978970;28;20718;-80
2021/01/30 02:01:53;;;;;;;2.13;0.60;;;10.40;99.90;;;;;;4970880;28;20234;-80
2021/01/30 02:04:22;;;;;;;1.00;0.80;;;10.40;99.90;;;;;;4971084;28;20246;-80
2021/01/30 02:06:52;;;;;;;1.00;0.60;;;10.40;99.90;;;;;;4970951;28;20712;-79
2021/01/30 02:09:21;;;;;;;1.20;0.70;;;10.50;99.90;;;;;;4970001;28;20718;-80
2021/01/30 02:11:58;;;;;;;1.07;0.67;;;10.50;99.90;;;;;;4970233;28;20234;-80
2021/01/30 02:14:25;;;;;;;1.90;0.77;;;10.50;99.90;;;;;;4970723;28;20243;-80
2021/01/30 02:16:59;;;;;;;0.97;0.77;;;10.50;99.90;;;;;;4970812;28;20226;-80
2021/01/30 02:19:55;;;;;;;1.50;0.80;;;10.60;99.90;;;;;;4993203;28;20239;-80
2021/01/30 02:23:00;;;;;;;2.23;0.80;;;10.60;99.90;;;;;;4977094;28;20709;-79
2021/01/30 02:25:54;;;;;;;1.20;0.70;;;10.60;99.90;;;;;;4968217;28;20242;-79
2021/01/30 02:28:27;;;;;;;1.20;0.70;;;10.70;99.90;;;;;;4970588;28;20682;-80
2021/01/30 02:31:15;;;;;;;1.23;0.80;;;10.70;99.90;;;;;;4970832;28;20233;-80
2021/01/30 02:34:17;;;;;;;1.70;0.70;;;10.80;99.90;;;;;;4970479;28;20229;-80
2021/01/30 02:36:52;;;;;;;0.70;0.50;;;10.80;99.90;;;;;;4971056;28;20241;-80
2021/01/30 02:39:25;;;;;;;0.90;0.53;;;10.80;99.90;;;;;;4970119;28;20741;-80
2021/01/30 02:41:56;;;;;;;0.73;0.60;;;10.90;99.90;;;;;;4968710;28;20240;-80
2021/01/30 02:44:25;;;;;;;1.17;0.63;;;10.90;99.90;;;;;;4970156;28;20295;-80
2021/01/30 02:46:54;;;;;;;1.53;0.70;;;10.90;99.90;;;;;;4970450;28;20241;-80
2021/01/30 02:49:25;;;;;;;1.47;0.60;;;11.00;99.90;;;;;;4970290;28;20245;-80
2021/01/30 02:52:04;;;;;;;0.97;0.70;;;11.00;99.90;;;;;;4970273;28;20226;-80
2021/01/30 02:54:35;;;;;;;0.87;0.60;;;11.00;99.90;;;;;;4970087;28;20284;-80
2021/01/30 02:57:06;;;;;;;1.00;0.70;;;11.00;99.90;;;;;;4970232;28;20689;-80
2021/01/30 02:59:35;;;;;;;1.43;0.40;;;11.00;99.90;;;;;;4970036;28;20234;-80
2021/01/30 03:02:01;;;;;;;0.77;0.50;;;11.00;99.90;;;;;;4970310;28;20709;-80
2021/01/30 03:04:29;;;;;;;0.53;0.40;;;11.10;99.90;;;;;;4970643;28;20230;-80
2021/01/30 03:07:24;;;;;;;0.50;0.40;;;11.10;99.90;;;;;;4969910;28;20678;-80
2021/01/30 03:10:00;;;;;;;0.53;0.30;;;11.10;99.90;;;;;;4969878;28;20202;-80
2021/01/30 03:12:31;;;;;;;1.40;0.50;;;11.10;99.90;;;;;;4970081;28;20205;-80
2021/01/30 03:15:04;;;;;;;1.47;0.40;;;11.20;99.90;;;;;;4969643;28;20234;-80
2021/01/30 03:17:32;;;;;;;0.60;0.40;;;11.20;99.90;;;;;;4969749;28;20800;-80
2021/01/30 03:20:01;;;;;;;0.60;0.50;;;11.30;99.90;;;;;;4969982;28;20242;-81
2021/01/30 03:22:31;;;;;;;0.70;0.40;;;11.30;99.90;;;;;;4969980;28;20249;-81
2021/01/30 03:24:59;;;;;;;0.50;0.40;;;11.40;99.90;;;;;;4970035;28;20237;-81
2021/01/30 03:27:29;;;;;;;0.80;0.33;;;11.50;99.90;;;;;;4970213;28;20242;-80
2021/01/30 03:29:56;;;;;;;1.27;0.50;;;11.50;99.90;;;;;;4970184;28;20285;-80
2021/01/30 03:32:24;;;;;;;2.40;0.70;;;11.50;99.90;;;;;;4969291;28;20671;-80
2021/01/30 03:34:53;;;;;;;1.77;0.50;;;11.60;99.90;;;;;;4970205;28;20245;-81
2021/01/30 03:37:20;;;;;;;2.93;0.50;;;11.60;99.90;;;;;;4969455;28;20231;-80
2021/01/30 03:39:48;;;;;;;3.80;0.70;;;11.60;99.90;;;;;;4970315;28;20238;-81
2021/01/30 03:42:15;;;;;;;2.70;0.60;;;11.60;99.90;;;;;;4969610;28;20263;-81
2021/01/30 03:44:42;;;;;;;2.53;0.67;;;11.60;99.90;;;;;;4969842;28;20245;-81
2021/01/30 03:47:09;;;;;;;4.70;0.80;;;11.60;99.90;;;;;;4969756;28;20242;-81
2021/01/30 03:49:35;;;;;;;4.37;0.97;;;11.60;99.90;;;;;;4969247;28;20684;-81
2021/01/30 03:52:02;;;;;;;5.43;0.90;;;11.60;99.90;;;;;;4969372;28;20303;-81
2021/01/30 03:54:28;;;;;;;2.47;0.77;;;11.60;99.90;;;;;;4972732;28;20242;-81
2021/01/30 03:56:55;;;;;;;3.57;0.60;;;11.60;99.90;;;;;;4973334;28;20210;-81
2021/01/30 03:59:22;;;;;;;4.50;1.30;;;11.60;99.90;;;;;;4972411;28;20314;-81
2021/01/30 04:01:49;;;;;;;2.67;0.70;;;11.60;99.90;;;;;;4972889;28;20238;-81
2021/01/30 04:04:16;;;;;;;5.27;1.00;;;11.60;99.90;;;;;;4972749;28;20645;-81
2021/01/30 04:06:48;;;;;;;3.47;0.70;;;11.60;99.90;;;;;;4972798;28;20230;-81
2021/01/30 04:09:16;;;;;;;5.73;1.03;;;11.60;99.90;;;;;;4972548;28;20203;-81
2021/01/30 04:11:43;;;;;;;5.03;1.00;;;11.60;99.90;;;;;;4973107;28;20245;-80
2021/01/30 04:14:11;;;;;;;4.83;1.33;;;11.60;99.90;;;;;;4972718;28;20230;-81
2021/01/30 04:16:37;;;;;;;7.23;1.20;;;11.60;99.90;;;;;;4972694;28;20702;-80
2021/01/30 04:19:04;;;;;;;3.73;0.93;;;11.60;99.90;;;;;;4972262;28;20319;-80
2021/01/30 04:21:30;;;;;;;7.83;1.30;;;11.60;99.90;;;;;;4972440;28;20291;-80
2021/01/30 04:23:57;;;;;;;8.67;1.40;;;11.60;99.90;;;;;;4972646;28;20203;-80
2021/01/30 04:26:24;;;;;;;6.43;1.37;;;11.60;99.90;;;;;;4972507;28;20238;-81
2021/01/30 04:28:51;;;;;;;8.40;1.50;;;11.60;99.90;;;;;;4972296;28;20248;-80
2021/01/30 04:31:19;;;;;;;9.17;1.40;;;11.60;99.90;;;;;;4972807;28;20683;-81
2021/01/30 04:33:47;;;;;;;8.73;1.60;;;11.50;99.90;;;;;;4971941;28;20447;-81
2021/01/30 04:36:13;;;;;;;10.70;1.70;;;;;;;;;;4972239;28;20217;-80
2021/01/30 04:38:40;;;;;;;9.73;1.53;;;11.50;99.90;;;;;;4972424;28;20280;-81
2021/01/30 04:41:13;;;;;;;9.90;1.90;;;11.50;99.90;;;;;;4971645;28;20737;-81
2021/01/30 04:43:43;;;;;;;11.77;1.97;;;11.50;99.90;;;;;;4953136;29;20206;-80
2021/01/30 04:46:15;;;;;;;11.80;2.03;;;11.50;99.90;;;;;;4952993;28;20234;-81
2021/01/30 04:48:59;;;;;;;9.67;1.93;;;11.50;99.90;;;;;;4952691;28;20242;-81
2021/01/30 04:51:33;;;;;;;10.90;2.07;;;11.50;99.90;;;;;;4963294;28;20695;-81
2021/01/30 04:54:17;;;;;;;14.80;2.13;;;11.50;99.90;;;;;;4971510;28;20202;-80
2021/01/30 04:57:01;;;;;;;14.10;2.40;;;11.50;99.90;;;;;;4971742;28;20234;-80
2021/01/30 04:59:37;;;;;;;7.53;1.77;;;11.50;99.90;;;;;;4972250;28;20711;-80
2021/01/30 05:02:07;;;;;;;12.07;2.50;;;11.50;99.90;;;;;;4971937;28;20252;-81
2021/01/30 05:04:37;;;;;;;11.00;2.10;;;11.40;99.90;;;;;;4971019;28;20231;-81
2021/01/30 05:07:15;;;;;;;15.10;2.20;;;11.50;99.90;;;;;;4971008;28;20237;-81
2021/01/30 05:09:49;;;;;;;14.70;2.30;;;11.50;99.90;;;;;;4971446;28;20226;-81
2021/01/30 05:12:19;;;;;;;12.87;2.63;;;11.50;99.90;;;;;;4971933;28;20284;-80
2021/01/30 05:14:52;;;;;;;11.23;2.43;;;11.50;99.90;;;;;;4971713;28;20707;-81
2021/01/30 05:17:22;;;;;;;14.87;2.47;;;11.50;99.90;;;;;;4971456;28;20269;-81
2021/01/30 05:19:56;;;;;;;15.87;2.47;;;11.40;99.90;;;;;;4971198;28;20260;-81
2021/01/30 05:22:31;;;;;;;13.90;2.30;;;11.50;99.90;;;;;;4971497;28;20232;-81
2021/01/30 05:24:58;;;;;;;16.37;2.67;;;11.50;99.90;;;;;;4971620;28;20252;-80
2021/01/30 05:27:49;;;;;;;11.40;2.00;;;11.40;99.90;;;;;;4970955;28;20218;-81
2021/01/30 05:30:20;;;;;;;15.50;2.30;;;11.40;99.90;;;;;;4971591;28;20206;-81
2021/01/30 05:33:08;;;;;;;14.17;2.23;;;11.40;99.90;;;;;;4971139;28;20262;-80
2021/01/30 05:35:45;;;;;;;18.07;3.00;;;11.40;99.90;;;;;;4971474;28;20205;-81
2021/01/30 05:38:29;;;;;;;13.90;2.80;;;11.40;99.90;;;;;;4971110;28;20272;-80
2021/01/30 05:41:02;;;;;;;12.53;2.27;;;11.30;99.90;;;;;;4971671;28;20252;-81
2021/01/30 05:43:38;;;;;;;16.73;2.70;;;11.30;99.90;;;;;;4970870;28;20253;-83
2021/01/30 05:46:06;;;;;;;20.07;2.80;;;11.30;99.90;;;;;;4971085;28;20725;-83
2021/01/30 05:48:35;;;;;;;17.60;3.00;;;11.30;99.90;;;;;;4970838;28;20297;-83
2021/01/30 05:51:08;;;;;;;17.53;2.60;;;11.20;99.90;;;;;;4971016;28;20239;-83
2021/01/30 05:53:35;;;;;;;18.47;3.07;;;11.20;99.90;;;;;;4971533;28;20234;-83
2021/01/30 05:56:01;;;;;;;13.30;2.67;;;11.20;99.90;;;;;;4971174;28;20639;-83
2021/01/30 05:58:28;;;;;;;16.47;2.60;;;11.10;99.90;;;;;;4971308;28;20262;-83
2021/01/30 06:01:21;;;;;;;16.37;2.40;;;11.10;99.90;;;;;;4971079;28;20686;-83
2021/01/30 06:03:58;;;;;;;11.73;2.33;;;11.10;99.90;;;;;;4962545;28;20301;-84
2021/01/30 06:06:27;;;;;;;9.47;1.97;;;11.10;99.90;;;;;;4971485;28;20287;-85
2021/01/30 06:08:59;;;;;;;9.83;1.60;;;11.00;99.90;;;;;;4970128;28;20226;-83
2021/01/30 06:11:45;;;;;;;6.70;1.43;;;11.00;99.90;;;;;;4970650;28;20598;-83
2021/01/30 06:14:32;;;;;;;9.07;2.00;;;10.90;99.90;;;;;;4970322;28;20946;-83
2021/01/30 06:17:00;;;;;;;8.17;1.93;;;11.00;99.90;;;;;;4973124;28;20245;-82
2021/01/30 06:19:30;;;;;;;7.57;2.30;;;11.00;99.90;;;;;;4978545;28;20708;-82
2021/01/30 06:22:25;;;;;;;10.17;2.50;;;11.00;99.90;;;;;;4971054;28;20304;-83
2021/01/30 06:24:51;;;;;;;9.03;2.40;;;10.90;99.90;;;;;;4911045;29;20266;-83
2021/01/30 06:27:29;;;;;;;6.43;1.70;;;10.90;99.90;;;;;;4911213;28;20236;-82
2021/01/30 06:29:58;;;;;;;7.87;1.40;;;10.80;99.90;;;;;;4911580;28;20227;-83
2021/01/30 06:32:31;;;;;;;11.83;1.57;;;10.70;99.90;;;;;;4910667;28;20778;-83
2021/01/30 06:35:10;;;;;;;12.57;1.97;;;10.70;99.90;;;;;;4911405;28;20240;-82
2021/01/30 06:37:43;;;;;;;10.80;1.80;;;10.60;99.90;;;;;;4911506;29;20698;-83
2021/01/30 06:40:18;;;;;;;7.93;1.57;;;10.60;99.90;;;;;;4910830;29;20244;-83
2021/01/30 06:42:46;;;;;;;10.27;1.70;;;10.60;99.90;;;;;;4911089;29;20208;-83
2021/01/30 06:45:24;;;;;;;9.17;2.23;;;10.60;99.90;;;;;;4910856;29;20236;-82
2021/01/30 06:47:51;;;;;;;12.83;2.47;;;10.50;99.90;;;;;;4910576;28;20232;-82
2021/01/30 06:50:22;;;;;;;14.27;2.57;;;10.60;99.90;;;;;;4910911;29;20287;-82
2021/01/30 06:52:50;;;;;;;17.83;2.97;;;10.60;99.90;;;;;;4910667;28;20236;-83
2021/01/30 06:55:16;;;;;;;12.80;2.93;;;10.60;99.90;;;;;;4910636;29;20247;-82
2021/01/30 06:57:50;;;;;;;17.30;3.23;;;10.60;99.90;;;;;;4910726;28;20267;-83
2021/01/30 07:00:28;;;;;;;19.13;3.07;;;10.70;99.90;;;;;;4934000;28;20230;-83
2021/01/30 07:03:08;;;;;;;20.47;3.40;;;10.60;99.90;;;;;;4970446;28;20617;-83
2021/01/30 07:05:56;;;;;;;24.50;3.93;;;10.70;99.90;;;;;;4970531;28;20236;-83
2021/01/30 07:08:47;;;;;;;28.20;3.63;;;10.70;99.90;;;;;;4967741;28;20244;-83
2021/01/30 07:11:56;;;;;;;26.23;3.80;;;10.70;99.90;;;;;;4970419;28;20215;-83
2021/01/30 07:15:04;;;;;;;30.70;4.57;;;10.70;99.90;;;;;;4910399;29;20303;-83
2021/01/30 07:17:53;;;;;;;27.53;4.67;;;10.70;99.90;;;;;;4896143;28;20700;-82
2021/01/30 07:20:31;;;;;;;28.77;4.83;;;10.70;99.90;;;;;;4923367;28;20295;-82
2021/01/30 07:23:06;;;;;;;27.50;4.07;;;10.60;99.90;;;;;;4909870;28;20247;-82
2021/01/30 07:25:38;;;;;;;30.87;5.00;;;10.60;99.90;;;;;;4910327;28;20762;-82
2021/01/30 07:28:22;;;;;;;31.97;5.10;;;10.50;99.90;;;;;;4911794;28;20278;-88
2021/01/30 07:30:54;;;;;;;26.67;4.73;;;10.50;99.90;;;;;;4913804;28;20225;-87
2021/01/30 07:33:26;;;;;;;28.63;4.90;;;10.50;99.90;;;;;;4912969;28;20697;-83
2021/01/30 07:35:59;;;;;;;29.13;6.07;;;10.60;99.90;;;;;;4913687;28;20235;-84
2021/01/30 07:38:32;;;;;;;36.87;5.53;;;10.50;99.90;;;;;;4910060;28;20275;-84
2021/01/30 07:41:06;;;;;;;34.27;5.73;;;10.40;99.90;;;;;;4895370;29;20201;-86
2021/01/30 07:43:38;;;;;;;33.87;5.23;;;10.40;99.90;;;;;;4907042;28;20632;-86
2021/01/30 07:46:14;;;;;;;35.10;5.77;;;10.50;99.90;;;;;;4913425;29;20204;-87
2021/01/30 07:48:50;;;;;;;37.90;5.57;;;10.50;99.90;;;;;;4949654;28;20225;-86
2021/01/30 07:51:22;;;;;;;31.70;5.13;;;10.40;99.90;;;;;;4973513;28;20281;-87
2021/01/30 07:54:14;;;;;;;30.90;5.70;;;10.40;99.90;;;;;;4971718;28;20198;-82
2021/01/30 07:57:12;;;;;;;31.70;5.50;;;10.30;99.90;;;;;;4972796;28;20663;-82
2021/01/30 07:59:49;;;;;;;35.83;6.00;;;10.30;99.90;;;;;;4972751;28;20687;-82
2021/01/30 08:03:10;;;;;;;32.73;5.63;;;10.40;99.90;;;;;;4971555;28;20205;-81
2021/01/30 08:05:39;;;;;;;40.47;5.87;;;10.40;99.90;;;;;;5030196;28;20291;-82
2021/01/30 08:08:22;;;;;;;44.23;6.50;;;10.50;99.90;;;;;;5031580;28;20204;-82
2021/01/30 08:10:58;;;;;;;41.47;6.27;;;10.50;99.90;;;;;;5028860;28;20208;-83
2021/01/30 08:29:03;;;;;;;38.60;5.70;;;10.70;99.90;;;;;;4905632;29;20222;-82
2021/01/30 08:34:43;;;;;;;45.23;6.83;;;10.70;99.90;;;;;;1281753;26;20230;-81
2021/01/30 08:37:36;;;;;;;38.33;6.70;;;10.70;99.90;;;;;;4979637;28;20233;-81
2021/01/30 08:40:13;;;;;;;43.03;7.03;;;10.80;99.90;;;;;;4982175;28;20214;-82
2021/01/30 08:42:56;;;;;;;44.63;6.50;;;10.80;99.90;;;;;;4993285;28;20295;-80
2021/01/30 08:45:27;;;;;;;45.63;7.37;;;11.00;99.90;;;;;;5004921;28;20296;-79
2021/01/30 08:48:08;;;;;;;43.07;6.20;;;11.00;99.90;;;;;;4990426;28;20232;-78
2021/01/30 08:50:42;;;;;;;37.50;6.83;;;11.20;99.90;;;;;;4995189;28;20257;-78
2021/01/30 08:53:14;;;;;;;44.57;6.73;;;11.20;99.90;;;;;;4994395;28;20803;-78
2021/01/30 08:55:55;;;;;;;49.67;6.37;;;11.10;99.90;;;;;;5004854;28;20236;-78
2021/01/30 08:58:47;;;;;;;38.27;5.97;;;11.10;99.90;;;;;;5003728;28;20256;-78
2021/01/30 09:01:56;;;;;;;40.77;6.30;;;11.30;99.90;;;;;;5010833;28;20221;-78
2021/01/30 09:04:47;;;;;;;40.40;6.27;;;11.60;99.90;;;;;;4995049;28;20229;-78
2021/01/30 09:07:50;;;;;;;45.27;7.53;;;12.10;99.90;;;;;;5004734;28;20814;-78
2021/01/30 09:10:29;;;;;;;42.50;7.17;;;12.10;99.90;;;;;;5004700;28;20206;-78
2021/01/30 09:12:58;;;;;;;48.17;8.27;;;12.30;99.90;;;;;;4995983;28;20267;-78
2021/01/30 09:15:59;;;;;;;39.87;7.27;;;12.20;99.90;;;;;;5013480;28;20236;-78
2021/01/30 09:18:49;;;;;;;42.43;7.27;;;12.20;99.90;;;;;;5006392;28;20257;-80
2021/01/30 09:21:31;;;;;;;50.33;6.90;;;12.20;99.90;;;;;;5002149;28;20256;-79
2021/01/30 09:24:19;;;;;;;45.23;7.90;;;12.10;99.90;;;;;;5004015;28;20256;-80
2021/01/30 09:26:54;;;;;;;36.30;6.60;;;12.20;99.90;;;;;;4991713;28;20230;-81
2021/01/30 09:29:24;;;;;;;40.43;7.47;;;12.10;99.90;;;;;;5001361;28;20232;-77
2021/01/30 09:31:55;;;;;;;38.17;6.97;;;12.00;99.90;;;;;;4993442;28;20291;-77
2021/01/30 09:34:24;;;;;;;42.57;7.47;;;12.10;99.90;;;;;;4974584;28;20281;-78
2021/01/30 09:36:53;;;;;;;42.03;7.90;;;12.20;99.90;;;;;;4991541;28;20244;-77
2021/01/30 09:39:24;;;;;;;43.67;7.23;;;12.30;99.90;;;;;;4978577;28;20333;-78
2021/01/30 09:42:04;;;;;;;30.67;6.30;;;12.50;99.90;;;;;;4971744;28;21744;-79
2021/01/30 09:44:31;;;;;;;44.17;7.70;;;12.50;99.90;;;;;;4954858;28;20239;-79
2021/01/30 09:47:01;;;;;;;46.50;7.73;;;12.60;99.90;;;;;;4992563;28;20261;-79
2021/01/30 09:49:31;;;;;;;40.93;7.53;;;12.50;99.90;;;;;;4992562;28;20232;-79
2021/01/30 09:51:59;;;;;;;43.87;8.47;;;12.50;99.90;;;;;;4991935;28;20229;-79
2021/01/30 09:54:28;;;;;;;49.03;8.47;;;12.50;99.90;;;;;;4993235;28;20631;-79
2021/01/30 09:56:59;;;;;;;48.07;9.03;;;12.50;99.90;;;;;;4980403;28;20237;-78
2021/01/30 09:59:28;;;;;;;43.27;8.17;;;12.40;99.90;;;;;;4973471;28;20241;-79
2021/01/30 10:02:09;;;;;;;41.80;7.63;;;12.30;99.90;;;;;;4973682;28;20249;-79
2021/01/30 10:04:35;;;;;;;45.53;8.03;;;12.40;99.90;;;;;;4988184;28;20636;-79
2021/01/30 10:07:08;;;;;;;45.80;7.47;;;12.50;99.90;;;;;;4973929;28;20245;-79
2021/01/30 10:09:39;;;;;;;40.63;7.33;;;12.40;99.90;;;;;;4992795;28;20205;-79
2021/01/30 10:12:07;;;;;;;45.90;7.30;;;12.30;99.90;;;;;;4976689;28;20234;-79
2021/01/30 10:14:36;;;;;;;40.50;7.53;;;12.30;99.90;;;;;;4971498;28;20203;-78
2021/01/30 10:17:05;;;;;;;44.20;8.17;;;12.20;99.90;;;;;;4973229;28;20234;-78
2021/01/30 10:19:33;;;;;;;48.43;8.27;;;12.10;99.90;;;;;;4973416;28;20655;-79
2021/01/30 10:22:12;;;;;;;46.83;8.03;;;12.20;99.90;;;;;;4973616;28;20224;-78
2021/01/30 10:24:39;;;;;;;40.77;7.03;;;12.40;99.90;;;;;;4973252;28;20241;-78
2021/01/30 10:27:14;;;;;;;39.80;7.00;;;12.50;99.90;;;;;;4973556;28;20301;-78
2021/01/30 10:29:40;;;;;;;37.37;6.80;;;12.40;99.90;;;;;;4973876;28;20198;-78
2021/01/30 10:32:11;;;;;;;43.00;7.33;;;12.20;99.90;;;;;;4977541;28;20249;-79
2021/01/30 10:34:41;;;;;;;35.87;6.97;;;12.00;99.90;;;;;;4989897;28;20245;-79
2021/01/30 10:37:12;;;;;;;41.53;7.13;;;11.80;99.90;;;;;;4974210;28;20234;-78
2021/01/30 10:39:43;;;;;;;38.83;6.50;;;11.70;99.90;;;;;;4986321;28;20325;-79
2021/01/30 10:42:18;;;;;;;39.07;6.97;;;11.60;99.90;;;;;;4973562;28;20239;-78
2021/01/30 10:44:47;;;;;;;38.67;6.77;;;11.80;99.90;;;;;;4972337;28;20233;-78
2021/01/30 10:47:15;;;;;;;35.13;6.27;;;11.90;99.90;;;;;;4973162;28;20237;-80
2021/01/30 10:49:41;;;;;;;30.27;6.70;;;12.00;99.90;;;;;;4972975;28;20235;-80
2021/01/30 10:52:14;;;;;;;41.00;6.80;;;12.30;99.90;;;;;;4971939;28;20302;-80
2021/01/30 10:54:41;;;;;;;30.67;5.73;;;12.30;99.90;;;;;;4981316;28;20257;-80
2021/01/30 10:58:00;;;;;;;35.50;6.20;;;12.30;99.90;;;;;;4992963;28;20268;-80
2021/01/30 11:07:44;;;;;;;29.77;5.97;;;12.20;99.90;;;;;;4958283;28;20335;-79
2021/01/30 11:10:25;;;;;;;26.00;5.70;;;11.90;99.90;;;;;;4964946;28;20288;-80
2021/01/30 11:12:53;;;;;;;24.87;5.03;;;11.80;99.90;;;;;;4977940;28;20289;-76
2021/01/30 11:15:22;;;;;;;27.73;5.50;;;11.80;99.90;;;;;;4988981;28;20233;-78
2021/01/30 11:17:50;;;;;;;25.60;5.43;;;11.90;99.90;;;;;;4985654;28;20205;-78
2021/01/30 11:20:39;;;;;;;27.03;6.00;;;11.90;99.90;;;;;;4978298;28;20242;-78
2021/01/30 11:23:05;;;;;;;27.57;5.43;;;11.90;99.90;;;;;;4976584;28;20229;-78
2021/01/30 11:25:37;;;;;;;29.33;5.47;;;11.80;99.90;;;;;;4972368;28;20205;-78
2021/01/30 11:28:04;;;;;;;35.27;6.13;;;11.70;99.90;;;;;;4978528;28;20278;-78
2021/01/30 11:30:30;;;;;;;32.10;5.97;;;11.70;99.90;;;;;;4986054;28;20244;-78
2021/01/30 11:33:01;;;;;;;33.37;6.23;;;11.70;99.90;;;;;;4983578;28;20254;-78
2021/01/30 11:35:33;;;;;;;36.53;6.40;;;11.70;99.90;;;;;;4976039;28;20345;-78
2021/01/30 11:38:06;;;;;;;35.07;6.93;;;11.60;99.90;;;;;;4984786;28;20210;-79
2021/01/30 11:40:33;;;;;;;43.53;7.00;;;11.50;99.90;;;;;;4989218;28;20680;-80
2021/01/30 11:42:59;;;;;;;38.20;6.87;;;11.50;99.90;;;;;;4980787;28;20294;-81
2021/01/30 11:45:26;;;;;;;41.90;7.10;;;11.60;99.90;;;;;;4989479;28;20229;-80
2021/01/30 11:47:52;;;;;;;36.53;5.93;;;11.60;99.90;;;;;;4995848;28;20255;-79
2021/01/30 11:50:19;;;;;;;42.27;6.40;;;11.60;99.90;;;;;;4995703;28;20212;-81
2021/01/30 11:52:46;;;;;;;34.00;7.00;;;11.50;99.90;;;;;;4976089;28;20696;-81
2021/01/30 11:55:14;;;;;;;44.70;7.10;;;11.50;99.90;;;;;;4976373;28;20246;-81
2021/01/30 11:57:40;;;;;;;36.87;6.80;;;11.50;99.90;;;;;;4989506;28;20671;-81
2021/01/30 12:00:10;;;;;;;35.03;6.70;;;11.60;99.90;;;;;;4983942;28;20249;-81
2021/01/30 12:02:39;;;;;;;35.70;5.80;;;11.60;99.90;;;;;;4991352;28;20754;-82
2021/01/30 12:05:08;;;;;;;32.40;6.23;;;11.70;99.90;;;;;;4993510;28;20225;-82
2021/01/30 12:07:35;;;;;;;35.97;6.23;;;11.60;99.90;;;;;;4984282;28;20634;-80
2021/01/30 12:10:01;;;;;;;30.43;6.07;;;11.60;99.90;;;;;;4993804;28;20304;-81
2021/01/30 12:12:28;;;;;;;32.63;5.13;;;11.60;99.90;;;;;;4982646;28;20205;-81
2021/01/30 12:14:55;;;;;;;27.60;5.33;;;11.60;99.90;;;;;;4994931;28;20687;-79
2021/01/30 12:17:34;;;;;;;30.23;5.33;;;11.70;99.90;;;;;;4977681;28;20220;-81
2021/01/30 12:20:01;;;;;;;28.70;5.33;;;11.70;99.90;;;;;;4975730;28;20250;-79
2021/01/30 12:22:27;;;;;;;28.73;5.67;;;11.60;99.90;;;;;;4977104;28;20254;-79
2021/01/30 12:24:54;;;;;;;32.03;6.07;;;11.50;99.90;;;;;;4975812;28;20676;-79
2021/01/30 12:27:20;;;;;;;30.97;5.93;;;11.60;99.90;;;;;;4975064;28;20288;-79
2021/01/30 12:29:48;;;;;;;27.70;5.83;;;11.50;99.90;;;;;;4974706;28;20714;-79
2021/01/30 12:32:15;;;;;;;29.83;5.60;;;11.50;99.90;;;;;;4975975;28;20253;-79
2021/01/30 12:34:41;;;;;;;27.23;5.47;;;11.50;99.90;;;;;;4985005;28;20283;-79
2021/01/30 12:37:08;;;;;;;22.20;4.43;;;11.40;99.90;;;;;;4984521;28;20633;-79
2021/01/30 12:39:35;;;;;;;23.07;4.80;;;11.40;99.90;;;;;;4978757;28;20225;-79
2021/01/30 12:42:01;;;;;;;23.03;4.80;;;11.50;99.90;;;;;;4980505;28;20313;-78
2021/01/30 12:44:27;;;;;;;19.43;4.63;;;11.60;99.90;;;;;;4981421;28;20234;-79
2021/01/30 12:46:55;;;;;;;18.80;3.77;;;11.80;99.90;;;;;;4994953;28;20225;-79
2021/01/30 12:49:21;;;;;;;17.27;3.80;;;11.70;99.90;;;;;;4976515;28;20238;-79
2021/01/30 12:51:48;;;;;;;20.10;3.63;;;11.80;99.90;;;;;;4975484;28;20241;-79
2021/01/30 12:54:17;;;;;;;21.00;4.90;;;11.90;99.90;;;;;;4978507;28;20206;-78
2021/01/30 12:56:51;;;;;;;19.43;4.00;;;11.90;99.90;;;;;;4984198;28;20203;-79
2021/01/30 12:59:19;;;;;;;17.53;4.03;;;11.90;99.90;;;;;;4968234;28;20221;-79
2021/01/30 13:01:45;;;;;;;18.23;4.57;;;11.80;99.90;;;;;;4978976;28;20197;-79
2021/01/30 13:04:12;;;;;;;21.30;4.17;;;11.90;99.90;;;;;;4972251;28;20230;-77
2021/01/30 13:06:39;;;;;;;22.50;5.10;;;11.90;99.90;;;;;;4974760;28;20230;-79
2021/01/30 13:09:05;;;;;;;18.77;3.67;;;11.90;99.90;;;;;;4980762;28;20225;-81
2021/01/30 13:11:31;;;;;;;19.27;4.13;;;11.80;99.90;;;;;;4989062;28;20243;-80
2021/01/30 13:13:58;;;;;;;24.40;4.37;;;11.70;99.90;;;;;;4975321;28;20241;-78
2021/01/30 13:16:24;;;;;;;25.43;4.50;;;11.60;99.90;;;;;;4974595;28;20237;-79
2021/01/30 13:18:51;;;;;;;21.03;4.90;;;11.60;99.90;;;;;;4974754;28;20297;-78
2021/01/30 13:21:18;;;;;;;27.47;5.57;;;11.50;99.90;;;;;;4974603;28;20664;-79
2021/01/30 13:23:44;;;;;;;21.20;4.20;;;11.40;99.90;;;;;;4974217;28;20692;-79
2021/01/30 13:26:13;;;;;;;24.97;4.83;;;11.40;99.90;;;;;;4978179;28;20281;-80
2021/01/30 13:28:39;;;;;;;23.00;5.00;;;11.40;99.90;;;;;;4974424;28;20198;-78
2021/01/30 13:31:06;;;;;;;18.43;3.53;;;11.40;99.90;;;;;;4974160;28;20231;-76
2021/01/30 13:33:32;;;;;;;17.90;3.43;;;11.30;99.90;;;;;;4982703;28;20258;-78